Time;durP1;ratioP1;P1;durP2;ratioP2;P2;SDS_P1;SDS_P2;PMS_P1;PMS_P2;Temp;Humidity;BMP_temperature;BMP_pressure;BME280_temperature;BME280_humidity;BME280_pressure;Samples;Min_cycle;Max_cycle;Signal;HPM_P1;HPM_P2
2023/02/05 00:01:54;;;;;;;4.65;2.92;;;18.40;42.00;;;;;;5115342;28;20181;-70
2023/02/05 00:04:22;;;;;;;5.93;3.30;;;18.40;42.00;;;;;;5115916;27;20270;-70
2023/02/05 00:06:49;;;;;;;4.97;2.97;;;18.40;42.00;;;;;;5115640;28;20189;-71
2023/02/05 00:09:16;;;;;;;5.43;2.90;;;18.40;42.00;;;;;;5115424;28;20213;-74
2023/02/05 00:11:43;;;;;;;5.63;2.88;;;18.40;42.10;;;;;;5115411;28;20250;-71
2023/02/05 00:14:10;;;;;;;5.93;3.20;;;18.30;42.00;;;;;;5115175;28;20274;-73
2023/02/05 00:16:37;;;;;;;5.18;3.00;;;18.40;42.10;;;;;;5115463;28;20188;-74
2023/02/05 00:19:04;;;;;;;5.25;2.92;;;18.30;42.00;;;;;;5115609;28;20217;-72
2023/02/05 00:21:33;;;;;;;5.85;3.28;;;18.30;42.10;;;;;;5115443;28;20185;-73
2023/02/05 00:24:00;;;;;;;5.10;2.83;;;18.30;42.10;;;;;;5115071;28;20294;-72
2023/02/05 00:26:27;;;;;;;5.53;3.40;;;18.30;42.10;;;;;;5115629;28;20197;-73
2023/02/05 00:28:54;;;;;;;5.75;3.50;;;18.30;42.10;;;;;;5114680;28;20213;-69
2023/02/05 00:31:22;;;;;;;8.82;3.58;;;18.30;42.10;;;;;;5115156;28;20186;-68
2023/02/05 00:33:50;;;;;;;6.28;3.00;;;18.30;42.10;;;;;;5115222;28;20216;-69
2023/02/05 00:36:18;;;;;;;4.35;2.92;;;18.30;42.10;;;;;;5114786;28;20181;-68
2023/02/05 00:38:47;;;;;;;4.10;2.78;;;18.30;42.10;;;;;;5115024;28;20286;-72
2023/02/05 00:41:15;;;;;;;7.05;3.03;;;18.30;42.20;;;;;;5114754;28;20682;-68
2023/02/05 00:43:43;;;;;;;6.55;3.20;;;18.30;42.20;;;;;;5114489;28;20213;-72
2023/02/05 00:46:12;;;;;;;4.30;3.30;;;18.30;42.20;;;;;;5115031;28;20243;-73
2023/02/05 00:48:40;;;;;;;5.03;3.15;;;18.30;42.20;;;;;;5114713;28;20221;-67
2023/02/05 00:51:07;;;;;;;6.25;3.22;;;18.30;42.20;;;;;;5114508;28;20654;-68
2023/02/05 00:53:34;;;;;;;6.30;3.33;;;18.30;42.30;;;;;;5114675;28;20225;-72
2023/02/05 00:56:03;;;;;;;5.22;3.28;;;18.30;42.30;;;;;;5114140;27;20189;-72
2023/02/05 00:58:30;;;;;;;6.75;3.40;;;18.30;42.30;;;;;;5113720;28;20225;-70
2023/02/05 01:00:58;;;;;;;6.45;3.58;;;18.30;42.30;;;;;;5114597;28;20189;-66
2023/02/05 01:03:25;;;;;;;5.30;3.05;;;18.30;42.30;;;;;;5114350;28;20755;-70
2023/02/05 01:05:52;;;;;;;5.45;3.10;;;18.30;42.30;;;;;;5114513;28;20254;-71
2023/02/05 01:08:19;;;;;;;6.40;3.40;;;18.30;42.30;;;;;;5114457;28;20209;-73
2023/02/05 01:10:48;;;;;;;4.53;3.00;;;18.30;42.40;;;;;;5114430;28;20650;-75
2023/02/05 01:13:17;;;;;;;8.45;3.53;;;18.30;42.40;;;;;;5113484;28;20212;-75
2023/02/05 01:15:45;;;;;;;4.95;2.90;;;18.30;42.40;;;;;;5114372;28;20186;-74
2023/02/05 01:18:12;;;;;;;6.97;3.10;;;18.30;42.40;;;;;;5113876;28;20678;-76
2023/02/05 01:20:41;;;;;;;6.13;3.10;;;18.20;42.40;;;;;;5114473;28;20226;-73
2023/02/05 01:23:08;;;;;;;4.55;3.15;;;18.30;42.40;;;;;;5113747;28;20278;-72
2023/02/05 01:25:35;;;;;;;5.55;2.90;;;18.20;42.40;;;;;;5114149;28;20195;-72
2023/02/05 01:28:03;;;;;;;5.35;3.00;;;18.20;42.40;;;;;;5113534;28;20276;-71
2023/02/05 01:30:31;;;;;;;4.85;2.83;;;18.20;42.40;;;;;;5114040;28;20242;-72
2023/02/05 01:32:58;;;;;;;4.57;3.03;;;18.20;42.40;;;;;;5113677;27;20694;-68
2023/02/05 01:35:25;;;;;;;7.05;3.50;;;18.20;42.40;;;;;;5113936;27;20235;-72
2023/02/05 01:37:52;;;;;;;5.55;3.10;;;18.20;42.40;;;;;;5113750;28;20225;-67
2023/02/05 01:40:20;;;;;;;4.50;3.20;;;18.20;42.50;;;;;;5113642;28;20186;-70
2023/02/05 01:42:47;;;;;;;6.35;3.15;;;18.20;42.50;;;;;;5112881;28;20646;-70
2023/02/05 01:45:53;;;;;;;4.30;3.00;;;18.20;42.50;;;;;;5113803;28;20193;-72
2023/02/05 01:48:27;;;;;;;4.97;3.00;;;18.20;42.60;;;;;;5113407;28;20763;-76
2023/02/05 01:50:57;;;;;;;4.53;2.85;;;18.20;42.60;;;;;;5113677;28;20190;-69
2023/02/05 01:53:29;;;;;;;5.68;3.00;;;18.20;42.60;;;;;;5113285;28;20698;-69
2023/02/05 01:55:59;;;;;;;4.68;2.47;;;18.20;42.70;;;;;;5113244;28;20190;-75
2023/02/05 01:58:30;;;;;;;4.78;2.63;;;18.20;42.70;;;;;;5112837;28;20233;-69
2023/02/05 02:00:58;;;;;;;6.15;3.17;;;18.20;42.70;;;;;;5113256;28;20192;-69
2023/02/05 02:03:30;;;;;;;3.20;2.47;;;18.20;42.70;;;;;;5113176;28;20221;-70
2023/02/05 02:05:57;;;;;;;6.07;2.60;;;18.20;42.70;;;;;;5112515;28;20727;-69
2023/02/05 02:08:25;;;;;;;4.38;2.70;;;18.20;42.80;;;;;;5113295;28;20675;-71
2023/02/05 02:10:55;;;;;;;3.28;2.38;;;18.10;42.70;;;;;;5113320;28;20185;-70
2023/02/05 02:13:24;;;;;;;4.10;2.58;;;18.10;42.70;;;;;;5112734;28;20275;-72
2023/02/05 02:15:51;;;;;;;6.55;2.75;;;18.20;42.80;;;;;;5113369;28;20189;-69
2023/02/05 02:18:27;;;;;;;5.05;2.55;;;18.20;42.90;;;;;;5113137;28;20285;-70
2023/02/05 02:21:24;;;;;;;5.97;2.30;;;18.10;42.80;;;;;;5113353;28;20238;-69
2023/02/05 02:24:17;;;;;;;3.85;2.35;;;18.10;42.90;;;;;;5112951;28;20297;-74
2023/02/05 02:27:06;;;;;;;5.68;2.33;;;18.20;43.00;;;;;;5112177;28;20197;-72
2023/02/05 02:29:39;;;;;;;4.70;2.60;;;18.20;43.10;;;;;;5112756;28;20927;-75
2023/02/05 02:32:15;;;;;;;5.03;2.20;;;18.10;42.90;;;;;;5113066;28;20193;-70
2023/02/05 02:34:46;;;;;;;3.38;2.10;;;18.10;43.00;;;;;;5112905;28;20702;-70
2023/02/05 02:37:22;;;;;;;3.53;2.20;;;18.10;43.00;;;;;;5112626;28;20197;-74
2023/02/05 02:39:58;;;;;;;4.82;2.08;;;18.10;43.00;;;;;;5113152;28;20219;-75
2023/02/05 02:42:32;;;;;;;3.53;2.10;;;18.10;43.00;;;;;;5112287;28;20258;-74
2023/02/05 02:45:03;;;;;;;6.00;2.28;;;18.10;43.10;;;;;;5112762;28;20217;-71
2023/02/05 02:47:36;;;;;;;2.97;1.95;;;18.10;43.10;;;;;;5112513;28;20647;-73
2023/02/05 02:50:09;;;;;;;3.25;2.13;;;18.10;43.20;;;;;;5113105;28;20277;-74
2023/02/05 02:52:40;;;;;;;5.90;2.20;;;18.10;43.20;;;;;;5112598;28;20231;-74
2023/02/05 02:55:12;;;;;;;4.95;2.30;;;18.10;43.20;;;;;;5114216;28;20181;-75
2023/02/05 02:57:42;;;;;;;2.53;1.80;;;18.10;43.20;;;;;;5112064;28;20364;-75
2023/02/05 03:00:14;;;;;;;2.75;2.03;;;18.10;43.20;;;;;;5112431;28;20238;-70
2023/02/05 03:02:43;;;;;;;4.03;1.98;;;18.10;43.30;;;;;;5112698;28;20212;-73
2023/02/05 03:05:14;;;;;;;7.20;1.95;;;18.10;43.30;;;;;;5112745;28;20185;-74
2023/02/05 03:07:45;;;;;;;5.10;2.08;;;18.10;43.30;;;;;;5112662;28;20193;-74
2023/02/05 03:10:19;;;;;;;2.80;1.90;;;18.10;43.40;;;;;;5112711;28;20189;-74
2023/02/05 03:12:46;;;;;;;5.47;2.00;;;18.10;43.40;;;;;;5111690;28;20600;-71
2023/02/05 03:15:15;;;;;;;4.20;2.03;;;18.10;43.50;;;;;;5112669;28;20257;-74
2023/02/05 03:17:43;;;;;;;4.43;1.80;;;18.10;43.50;;;;;;5113297;28;20206;-68
2023/02/05 03:20:16;;;;;;;3.05;2.17;;;18.10;43.50;;;;;;5116613;28;20751;-71
2023/02/05 03:22:43;;;;;;;3.35;2.10;;;18.10;43.50;;;;;;5116100;28;20270;-70
2023/02/05 03:25:10;;;;;;;6.00;2.42;;;18.10;43.60;;;;;;5116728;28;20216;-73
2023/02/05 03:27:38;;;;;;;4.07;1.80;;;18.10;43.60;;;;;;5115764;28;20205;-72
2023/02/05 03:30:07;;;;;;;2.45;1.90;;;18.10;43.60;;;;;;5116434;28;20221;-75
2023/02/05 03:32:51;;;;;;;5.32;1.90;;;18.10;43.70;;;;;;5116080;28;20219;-73
2023/02/05 03:35:28;;;;;;;3.63;1.70;;;18.10;43.70;;;;;;5116366;28;20190;-70
2023/02/05 03:38:20;;;;;;;4.10;1.90;;;18.10;43.70;;;;;;5116087;28;20208;-74
2023/02/05 03:40:52;;;;;;;4.93;1.88;;;18.10;43.80;;;;;;5105577;28;20253;-73
2023/02/05 03:43:30;;;;;;;7.85;2.17;;;18.00;43.70;;;;;;5115995;28;20620;-72
2023/02/05 03:46:03;;;;;;;4.00;2.10;;;18.00;43.80;;;;;;5115820;28;20185;-75
2023/02/05 03:48:44;;;;;;;5.07;1.75;;;18.00;43.70;;;;;;5108922;28;20213;-70
2023/02/05 03:51:22;;;;;;;3.03;1.92;;;18.00;43.80;;;;;;5098617;28;20210;-74
2023/02/05 03:54:00;;;;;;;3.17;1.90;;;18.00;43.90;;;;;;5095654;28;20223;-74
2023/02/05 03:56:34;;;;;;;4.95;1.80;;;18.00;43.90;;;;;;5102474;28;20201;-69
2023/02/05 03:59:02;;;;;;;6.57;1.77;;;18.00;44.00;;;;;;5115553;28;20278;-69
2023/02/05 04:01:30;;;;;;;4.88;1.88;;;18.00;44.00;;;;;;5115806;28;20231;-71
2023/02/05 04:03:58;;;;;;;4.53;2.10;;;18.00;44.00;;;;;;5115462;28;20756;-75
2023/02/05 04:06:25;;;;;;;4.35;2.17;;;18.00;44.00;;;;;;5115435;28;20189;-69
2023/02/05 04:08:52;;;;;;;5.45;2.00;;;18.00;44.10;;;;;;5115376;28;20213;-68
2023/02/05 04:11:19;;;;;;;4.18;2.00;;;18.00;44.10;;;;;;5114832;28;20194;-74
2023/02/05 04:13:47;;;;;;;5.50;1.75;;;18.00;44.10;;;;;;5115619;28;20337;-69
2023/02/05 04:16:14;;;;;;;3.35;1.80;;;18.00;44.20;;;;;;5115586;28;20246;-70
2023/02/05 04:18:41;;;;;;;6.55;2.22;;;18.00;44.20;;;;;;5115100;28;20247;-74
2023/02/05 04:21:09;;;;;;;4.03;1.80;;;18.00;44.30;;;;;;5115429;28;20189;-71
2023/02/05 04:23:36;;;;;;;4.20;1.85;;;18.00;44.30;;;;;;5115094;28;20635;-71
2023/02/05 04:26:03;;;;;;;5.22;2.13;;;18.00;44.30;;;;;;5114913;28;20208;-69
2023/02/05 04:28:31;;;;;;;5.68;1.85;;;18.00;44.40;;;;;;5115316;28;20353;-69
2023/02/05 04:30:58;;;;;;;5.78;2.10;;;18.00;44.40;;;;;;5114321;28;20189;-72
2023/02/05 04:33:25;;;;;;;5.03;1.92;;;18.00;44.40;;;;;;5114792;28;20221;-75
2023/02/05 04:35:52;;;;;;;5.40;1.77;;;18.00;44.50;;;;;;5115162;28;20185;-74
2023/02/05 04:38:20;;;;;;;4.07;1.70;;;18.00;44.50;;;;;;5115286;28;20229;-75
2023/02/05 04:40:47;;;;;;;5.00;2.00;;;18.00;45.10;;;;;;5114164;28;20234;-69
2023/02/05 04:43:14;;;;;;;5.72;2.15;;;18.00;44.50;;;;;;5115060;28;20269;-69
2023/02/05 04:45:42;;;;;;;3.13;1.80;;;18.00;44.50;;;;;;5115007;28;20239;-74
2023/02/05 04:48:09;;;;;;;3.83;1.88;;;18.00;44.50;;;;;;5114776;28;20243;-75
2023/02/05 04:50:38;;;;;;;6.85;1.85;;;17.90;44.40;;;;;;5114945;28;20194;-74
2023/02/05 04:53:05;;;;;;;6.97;2.22;;;18.00;45.20;;;;;;5114731;28;20193;-70
2023/02/05 04:55:34;;;;;;;5.63;2.45;;;18.00;44.50;;;;;;5114688;28;20189;-69
2023/02/05 04:58:01;;;;;;;5.28;1.88;;;18.00;44.50;;;;;;5114031;28;20964;-69
2023/02/05 05:00:28;;;;;;;4.68;2.13;;;18.00;44.50;;;;;;5114365;28;20190;-73
2023/02/05 05:02:56;;;;;;;3.42;1.88;;;17.90;44.40;;;;;;5114556;28;20185;-74
2023/02/05 05:05:23;;;;;;;5.25;2.10;;;18.00;44.50;;;;;;5114337;28;20225;-70
2023/02/05 05:07:50;;;;;;;4.53;1.92;;;17.90;44.50;;;;;;5114556;28;20242;-73
2023/02/05 05:10:17;;;;;;;5.80;2.05;;;18.00;44.50;;;;;;5114181;28;20217;-69
2023/02/05 05:12:46;;;;;;;4.15;1.95;;;18.00;44.50;;;;;;5113472;28;20670;-71
2023/02/05 05:15:13;;;;;;;7.00;2.28;;;18.00;44.50;;;;;;5114268;28;20213;-75
2023/02/05 05:17:40;;;;;;;6.40;2.03;;;18.00;44.50;;;;;;5114311;28;20185;-75
2023/02/05 05:20:08;;;;;;;3.45;1.80;;;17.90;44.50;;;;;;5114067;28;20689;-70
2023/02/05 05:22:35;;;;;;;5.70;2.08;;;17.90;44.50;;;;;;5114033;27;20186;-73
2023/02/05 05:25:02;;;;;;;6.65;2.45;;;17.90;44.50;;;;;;5114354;28;20270;-69
2023/02/05 05:27:29;;;;;;;7.38;2.45;;;17.90;44.50;;;;;;5113529;28;20200;-69
2023/02/05 05:29:58;;;;;;;5.95;2.00;;;17.90;44.60;;;;;;5115264;28;20269;-69
2023/02/05 05:32:25;;;;;;;6.93;2.00;;;18.00;44.70;;;;;;5113858;28;20657;-75
2023/02/05 05:34:52;;;;;;;7.13;1.83;;;17.90;44.60;;;;;;5113649;28;20213;-74
2023/02/05 05:37:19;;;;;;;5.90;2.00;;;17.90;44.70;;;;;;5113857;28;20193;-70
2023/02/05 05:45:16;;;;;;;4.25;1.88;;;18.00;45.10;;;;;;5113766;28;20709;-70
2023/02/05 05:47:43;;;;;;;6.65;2.08;;;17.90;45.00;;;;;;5113307;28;20193;-70
2023/02/05 05:50:10;;;;;;;5.63;1.85;;;17.90;45.00;;;;;;5113619;28;20636;-74
2023/02/05 05:52:38;;;;;;;6.45;2.20;;;17.90;45.00;;;;;;5113644;28;20250;-71
2023/02/05 05:55:05;;;;;;;7.20;2.30;;;17.90;45.10;;;;;;5113496;28;20252;-69
2023/02/05 05:57:32;;;;;;;5.63;2.10;;;17.90;45.10;;;;;;5112922;28;20189;-74
2023/02/05 05:59:59;;;;;;;6.28;1.88;;;17.90;45.10;;;;;;5113379;27;20254;-71
2023/02/05 06:02:28;;;;;;;6.15;1.90;;;17.90;45.10;;;;;;5113142;28;20643;-75
2023/02/05 06:04:55;;;;;;;5.93;2.25;;;17.90;45.20;;;;;;5113166;28;20220;-73
2023/02/05 06:07:22;;;;;;;5.00;2.00;;;17.90;45.20;;;;;;5113440;28;20193;-74
2023/02/05 06:09:49;;;;;;;7.55;2.17;;;17.90;45.20;;;;;;5113540;28;20217;-75
2023/02/05 06:12:16;;;;;;;3.72;1.90;;;17.90;45.20;;;;;;5112762;28;20249;-70
2023/02/05 06:14:43;;;;;;;8.80;2.10;;;17.90;45.30;;;;;;5113287;28;20298;-69
2023/02/05 06:17:10;;;;;;;3.45;2.05;;;17.90;45.30;;;;;;5113162;28;20246;-69
2023/02/05 06:19:38;;;;;;;7.50;2.13;;;17.90;45.30;;;;;;5113255;28;20277;-75
2023/02/05 06:22:06;;;;;;;5.80;2.22;;;17.90;45.40;;;;;;5112850;28;20660;-74
2023/02/05 06:24:33;;;;;;;5.20;2.15;;;17.90;45.40;;;;;;5112838;28;20249;-73
2023/02/05 06:27:00;;;;;;;5.90;2.33;;;17.90;45.40;;;;;;5112204;28;20193;-70
2023/02/05 06:29:27;;;;;;;5.32;2.08;;;17.90;45.40;;;;;;5113137;28;20213;-70
2023/02/05 06:31:54;;;;;;;4.80;2.55;;;17.90;45.40;;;;;;5113011;27;20181;-69
2023/02/05 06:34:21;;;;;;;9.25;2.30;;;17.90;45.40;;;;;;5113089;28;20274;-70
2023/02/05 06:36:50;;;;;;;6.00;2.20;;;17.90;45.50;;;;;;5113059;28;20185;-70
2023/02/05 06:39:17;;;;;;;3.92;1.85;;;17.90;45.50;;;;;;5112633;28;20824;-69
2023/02/05 06:41:44;;;;;;;6.40;2.25;;;17.90;45.60;;;;;;5112383;28;20243;-70
2023/02/05 06:44:11;;;;;;;7.60;2.38;;;17.90;45.50;;;;;;5112985;28;20213;-74
2023/02/05 06:46:38;;;;;;;6.88;2.20;;;17.80;45.50;;;;;;5112967;28;20253;-70
2023/02/05 06:49:05;;;;;;;7.03;2.20;;;17.90;45.60;;;;;;5112841;28;20278;-69
2023/02/05 06:51:32;;;;;;;5.25;2.20;;;17.90;45.60;;;;;;5112833;28;20193;-73
2023/02/05 06:54:01;;;;;;;7.13;1.90;;;17.90;45.60;;;;;;5116309;28;20221;-70
2023/02/05 06:56:28;;;;;;;7.55;2.10;;;17.90;45.60;;;;;;5116442;28;20185;-69
2023/02/05 06:58:55;;;;;;;5.43;2.22;;;17.80;45.60;;;;;;5116943;28;20224;-70
2023/02/05 07:01:22;;;;;;;8.40;2.22;;;17.80;45.60;;;;;;5116980;28;20189;-75
2023/02/05 07:03:53;;;;;;;4.20;2.20;;;17.90;45.60;;;;;;5116859;28;20262;-69
2023/02/05 07:06:20;;;;;;;5.35;2.08;;;17.80;45.60;;;;;;5116933;27;20272;-69
2023/02/05 07:08:47;;;;;;;4.65;1.95;;;17.80;45.60;;;;;;5116471;28;20217;-71
2023/02/05 07:11:16;;;;;;;5.05;1.95;;;17.90;45.60;;;;;;5115936;28;20192;-69
2023/02/05 07:13:43;;;;;;;7.25;2.30;;;17.80;45.60;;;;;;5116752;28;20253;-74
2023/02/05 07:16:10;;;;;;;8.43;2.30;;;17.80;45.60;;;;;;5116442;28;20231;-71
2023/02/05 07:18:37;;;;;;;5.97;2.15;;;17.80;45.60;;;;;;5116244;28;20558;-71
2023/02/05 07:21:06;;;;;;;5.20;2.20;;;17.80;45.60;;;;;;5116579;28;20212;-70
2023/02/05 07:23:33;;;;;;;5.88;2.45;;;17.80;45.60;;;;;;5116023;28;20278;-74
2023/02/05 07:26:06;;;;;;;3.38;2.00;;;17.80;45.60;;;;;;5115778;28;20193;-69
2023/02/05 07:28:35;;;;;;;5.28;2.33;;;17.80;45.60;;;;;;5116146;28;20242;-73
2023/02/05 07:31:05;;;;;;;3.90;2.00;;;17.80;45.60;;;;;;5116451;28;20197;-74
2023/02/05 07:33:33;;;;;;;6.05;2.33;;;17.80;45.60;;;;;;5116370;28;20186;-69
2023/02/05 07:36:03;;;;;;;6.72;2.05;;;17.80;45.50;;;;;;5116332;28;20186;-69
2023/02/05 07:38:30;;;;;;;5.13;2.03;;;17.80;45.60;;;;;;5116231;28;20188;-74
2023/02/05 07:40:57;;;;;;;5.88;1.95;;;17.80;45.60;;;;;;5115555;28;20213;-70
2023/02/05 07:43:24;;;;;;;6.47;2.00;;;17.80;45.60;;;;;;5116142;28;20238;-71
2023/02/05 07:45:58;;;;;;;5.25;1.98;;;17.80;45.50;;;;;;5116136;28;20600;-72
2023/02/05 07:48:25;;;;;;;3.58;1.80;;;17.80;45.60;;;;;;5115934;28;20186;-74
2023/02/05 07:50:52;;;;;;;3.10;1.70;;;17.80;45.50;;;;;;5116172;28;20242;-69
2023/02/05 07:53:20;;;;;;;5.53;1.88;;;17.70;45.40;;;;;;5115607;28;20651;-71
2023/02/05 07:55:47;;;;;;;6.03;2.13;;;17.70;45.70;;;;;;5115575;28;20213;-69
2023/02/05 07:58:14;;;;;;;6.38;2.33;;;17.70;45.40;;;;;;5115579;28;20189;-74
2023/02/05 08:00:42;;;;;;;5.75;2.30;;;17.80;45.50;;;;;;5115726;28;20229;-73
2023/02/05 08:03:11;;;;;;;5.80;1.80;;;17.80;45.50;;;;;;5115827;28;20193;-72
2023/02/05 08:05:38;;;;;;;5.43;2.08;;;17.80;45.50;;;;;;5115095;28;20285;-69
2023/02/05 08:08:06;;;;;;;3.08;1.60;;;17.70;45.40;;;;;;5115661;28;20234;-74
2023/02/05 08:10:33;;;;;;;6.80;2.08;;;17.70;45.40;;;;;;5115049;28;20286;-73
2023/02/05 08:13:01;;;;;;;5.35;2.35;;;17.80;46.10;;;;;;5115671;28;20247;-70
2023/02/05 08:15:28;;;;;;;3.83;1.90;;;17.80;45.40;;;;;;5115810;28;20217;-72
2023/02/05 08:17:55;;;;;;;5.97;1.80;;;17.70;45.40;;;;;;5115190;27;20186;-69
2023/02/05 08:20:23;;;;;;;4.65;1.73;;;17.70;45.40;;;;;;5115319;28;20258;-74
2023/02/05 08:22:50;;;;;;;5.10;1.80;;;17.70;45.30;;;;;;5115196;28;20228;-70
2023/02/05 08:25:17;;;;;;;5.68;2.05;;;17.70;45.30;;;;;;5114874;28;20217;-70
2023/02/05 08:27:45;;;;;;;5.95;1.60;;;17.70;45.20;;;;;;5115268;28;20707;-69
2023/02/05 08:30:15;;;;;;;3.25;1.48;;;17.70;45.20;;;;;;5117060;28;20209;-69
2023/02/05 08:32:42;;;;;;;5.57;2.25;;;17.70;45.20;;;;;;5115314;28;20235;-69
2023/02/05 08:35:09;;;;;;;5.18;2.30;;;17.70;45.10;;;;;;5115339;28;20217;-74
2023/02/05 08:37:37;;;;;;;5.13;1.60;;;17.70;45.10;;;;;;5115135;28;20254;-74
2023/02/05 08:40:05;;;;;;;6.20;2.22;;;17.70;45.10;;;;;;5114276;28;20228;-69
2023/02/05 08:42:32;;;;;;;5.30;2.10;;;17.70;45.10;;;;;;5114770;28;20193;-70
2023/02/05 08:44:59;;;;;;;6.97;1.70;;;17.70;45.10;;;;;;5115169;28;20270;-69
2023/02/05 08:47:27;;;;;;;5.63;1.95;;;17.70;45.10;;;;;;5114906;28;20802;-74
2023/02/05 08:49:54;;;;;;;5.28;1.70;;;17.70;45.00;;;;;;5114719;28;20270;-70
2023/02/05 08:52:21;;;;;;;4.93;1.90;;;17.70;44.90;;;;;;5114577;28;20189;-69
2023/02/05 08:54:50;;;;;;;5.28;1.92;;;17.70;44.90;;;;;;5114354;28;20267;-75
2023/02/05 08:57:17;;;;;;;4.57;1.80;;;17.70;44.90;;;;;;5114671;28;20216;-73
2023/02/05 08:59:44;;;;;;;4.00;1.75;;;17.70;44.90;;;;;;5114689;28;20224;-75
2023/02/05 09:02:14;;;;;;;2.92;1.60;;;17.70;44.90;;;;;;5114722;28;20186;-75
2023/02/05 09:04:42;;;;;;;4.55;1.80;;;17.70;44.90;;;;;;5114628;28;20239;-75
2023/02/05 09:07:09;;;;;;;6.35;1.90;;;17.70;44.80;;;;;;5114692;28;20655;-70
2023/02/05 09:09:37;;;;;;;8.65;1.98;;;17.70;44.80;;;;;;5114016;27;20217;-69
2023/02/05 09:12:06;;;;;;;3.78;1.73;;;17.60;44.70;;;;;;5115163;28;20655;-69
2023/02/05 09:14:35;;;;;;;6.90;2.15;;;17.60;44.60;;;;;;5114493;27;20217;-69
2023/02/05 09:17:03;;;;;;;6.00;2.05;;;17.60;44.60;;;;;;5114129;28;20197;-69
2023/02/05 09:19:33;;;;;;;5.80;1.90;;;17.60;44.50;;;;;;5114185;28;20259;-74
2023/02/05 09:22:00;;;;;;;5.03;1.80;;;17.60;44.50;;;;;;5114241;28;20194;-69
2023/02/05 09:24:27;;;;;;;5.45;1.98;;;17.60;44.40;;;;;;5113184;28;20233;-70
2023/02/05 09:26:54;;;;;;;5.35;2.00;;;17.60;44.40;;;;;;5114159;28;20197;-74
2023/02/05 09:29:23;;;;;;;3.80;1.38;;;17.60;44.30;;;;;;5113837;28;20217;-69
2023/02/05 09:31:50;;;;;;;7.50;1.92;;;17.60;44.30;;;;;;5114118;28;20242;-74
2023/02/05 09:34:17;;;;;;;5.07;2.00;;;17.60;44.30;;;;;;5114057;28;20286;-70
2023/02/05 09:36:44;;;;;;;4.22;1.70;;;17.60;44.30;;;;;;5113987;28;20185;-69
2023/02/05 09:39:11;;;;;;;6.22;2.20;;;17.60;44.20;;;;;;5113083;28;20221;-70
2023/02/05 09:41:46;;;;;;;6.63;2.08;;;17.60;44.20;;;;;;5113531;28;20270;-69
2023/02/05 09:44:22;;;;;;;6.32;1.90;;;17.60;44.20;;;;;;5113801;28;20274;-75
2023/02/05 09:47:01;;;;;;;8.82;1.63;;;17.50;44.10;;;;;;5113390;28;20189;-69
2023/02/05 09:49:33;;;;;;;5.07;1.90;;;17.50;44.10;;;;;;5113742;28;20213;-70
2023/02/05 09:52:04;;;;;;;6.65;1.85;;;17.50;44.10;;;;;;5113331;28;20650;-74
2023/02/05 09:54:35;;;;;;;5.75;1.70;;;17.60;44.20;;;;;;5113099;28;20217;-70
2023/02/05 09:57:06;;;;;;;9.52;2.17;;;17.50;44.10;;;;;;5113306;28;20731;-69
2023/02/05 09:59:34;;;;;;;4.50;1.95;;;17.50;44.10;;;;;;5113231;28;20756;-74
2023/02/05 10:02:16;;;;;;;4.22;1.70;;;17.50;44.10;;;;;;5113512;28;20189;-70
2023/02/05 10:04:43;;;;;;;4.43;2.03;;;17.50;44.10;;;;;;5113402;28;20262;-74
2023/02/05 10:07:25;;;;;;;5.28;1.80;;;17.60;44.20;;;;;;5113421;28;20185;-74
2023/02/05 10:10:21;;;;;;;4.97;1.60;;;17.50;44.10;;;;;;5112888;28;20217;-69
2023/02/05 10:13:02;;;;;;;6.30;1.73;;;17.50;44.10;;;;;;5103210;28;20189;-74
2023/02/05 10:15:47;;;;;;;5.88;1.88;;;17.50;44.10;;;;;;5113519;28;20216;-73
2023/02/05 10:18:26;;;;;;;5.65;1.50;;;17.50;44.10;;;;;;5112870;28;20716;-74
2023/02/05 10:21:05;;;;;;;6.43;2.10;;;17.50;44.10;;;;;;5113104;28;20278;-70
2023/02/05 10:23:52;;;;;;;5.10;1.98;;;17.50;44.10;;;;;;5111325;28;20229;-73
2023/02/05 10:26:24;;;;;;;4.75;1.85;;;17.50;44.10;;;;;;5113354;28;20600;-68
2023/02/05 10:29:08;;;;;;;5.68;2.03;;;17.50;44.10;;;;;;5112084;28;20182;-71
2023/02/05 10:31:42;;;;;;;6.00;1.85;;;17.50;44.10;;;;;;5112776;28;20639;-73
2023/02/05 10:34:34;;;;;;;5.47;1.90;;;17.50;44.10;;;;;;5112697;28;20217;-72
2023/02/05 10:37:03;;;;;;;5.43;1.83;;;17.50;44.10;;;;;;5112546;28;20222;-71
2023/02/05 10:39:31;;;;;;;5.03;1.73;;;17.50;44.10;;;;;;5112132;28;20217;-69
2023/02/05 10:42:04;;;;;;;5.35;2.03;;;17.50;44.10;;;;;;5112879;28;20722;-69
2023/02/05 10:44:36;;;;;;;7.07;1.70;;;17.50;44.00;;;;;;5112649;28;20213;-74
2023/02/05 10:47:10;;;;;;;8.43;2.10;;;17.50;44.00;;;;;;5112922;28;20189;-69
2023/02/05 10:49:45;;;;;;;8.95;2.35;;;17.50;44.00;;;;;;5112686;28;20216;-70
2023/02/05 10:52:15;;;;;;;5.18;1.90;;;17.50;44.00;;;;;;5112938;28;20247;-72
2023/02/05 10:54:42;;;;;;;4.93;1.80;;;17.50;44.10;;;;;;5112288;28;20274;-74
2023/02/05 10:57:14;;;;;;;6.28;1.83;;;17.50;44.10;;;;;;5112495;28;20638;-70
2023/02/05 10:59:51;;;;;;;5.82;1.85;;;17.50;44.10;;;;;;5112531;28;20217;-69
2023/02/05 11:02:19;;;;;;;4.22;1.75;;;17.50;44.00;;;;;;5112538;28;20566;-72
2023/02/05 11:04:54;;;;;;;5.82;1.70;;;17.50;44.10;;;;;;5112453;28;20238;-75
2023/02/05 11:07:27;;;;;;;4.82;2.08;;;17.50;44.00;;;;;;5112810;28;20185;-70
2023/02/05 11:09:54;;;;;;;4.88;1.95;;;17.40;44.00;;;;;;5111848;28;20822;-74
2023/02/05 11:12:29;;;;;;;4.53;1.65;;;17.50;44.10;;;;;;5112640;28;20185;-75
2023/02/05 11:14:58;;;;;;;6.15;1.75;;;17.50;44.00;;;;;;5112747;28;20624;-74
2023/02/05 11:17:32;;;;;;;6.60;1.90;;;17.50;44.00;;;;;;5112310;28;20276;-74
2023/02/05 11:20:05;;;;;;;4.60;1.70;;;17.40;44.00;;;;;;5112559;28;20212;-74
2023/02/05 11:22:34;;;;;;;5.45;1.65;;;17.40;44.00;;;;;;5112407;28;20697;-69
2023/02/05 11:25:16;;;;;;;5.47;1.92;;;17.40;43.90;;;;;;5111983;28;20209;-74
2023/02/05 11:27:52;;;;;;;5.22;1.73;;;17.40;43.80;;;;;;5112228;28;20181;-75
2023/02/05 11:30:25;;;;;;;6.70;2.10;;;17.40;43.90;;;;;;5112262;28;20705;-69
2023/02/05 11:32:52;;;;;;;5.35;2.08;;;17.40;43.90;;;;;;5112170;28;20666;-74
2023/02/05 11:35:24;;;;;;;5.45;1.60;;;17.40;43.80;;;;;;5112266;28;20217;-68
2023/02/05 11:38:00;;;;;;;8.43;1.80;;;17.40;43.80;;;;;;5112319;28;20190;-73
2023/02/05 11:40:30;;;;;;;4.93;1.73;;;17.40;43.80;;;;;;5116021;28;20228;-70
2023/02/05 11:43:02;;;;;;;4.30;1.65;;;17.40;43.80;;;;;;5115927;28;20195;-74
2023/02/05 11:45:30;;;;;;;5.53;1.80;;;17.40;43.70;;;;;;5116294;28;20228;-70
2023/02/05 11:48:00;;;;;;;7.03;2.28;;;17.40;43.80;;;;;;5115779;28;20194;-74
2023/02/05 11:50:31;;;;;;;5.32;1.73;;;17.40;43.70;;;;;;5116295;28;20220;-75
2023/02/05 11:53:10;;;;;;;4.28;1.73;;;17.40;43.70;;;;;;5115323;28;20651;-70
2023/02/05 11:55:38;;;;;;;4.53;1.77;;;17.40;43.70;;;;;;5116210;28;20217;-69
2023/02/05 11:58:07;;;;;;;5.05;1.90;;;17.40;43.70;;;;;;5115594;28;20243;-71
2023/02/05 12:00:34;;;;;;;3.60;1.65;;;17.40;43.70;;;;;;5115977;28;20274;-74
2023/02/05 12:03:14;;;;;;;6.03;1.67;;;17.40;43.70;;;;;;5115874;28;20186;-73
2023/02/05 12:05:49;;;;;;;4.25;1.55;;;17.40;43.70;;;;;;5115585;28;20212;-75
2023/02/05 12:08:27;;;;;;;7.03;2.45;;;17.40;43.70;;;;;;5114743;28;20193;-70
2023/02/05 12:11:02;;;;;;;4.80;2.00;;;17.40;43.70;;;;;;5115835;28;20221;-71
2023/02/05 12:13:43;;;;;;;4.38;1.50;;;17.40;43.60;;;;;;5115304;28;20601;-69
2023/02/05 12:16:18;;;;;;;4.97;1.60;;;17.40;43.60;;;;;;5115751;28;20221;-74
2023/02/05 12:18:56;;;;;;;5.30;2.10;;;17.30;43.50;;;;;;5115231;27;20193;-69
2023/02/05 12:21:35;;;;;;;4.72;1.80;;;17.40;43.60;;;;;;5114095;28;20586;-74
2023/02/05 12:24:34;;;;;;;4.60;1.70;;;17.30;43.50;;;;;;5114721;28;20352;-73
2023/02/05 12:27:08;;;;;;;5.75;1.73;;;17.40;43.50;;;;;;5052214;28;20199;-70
2023/02/05 12:29:54;;;;;;;5.45;1.92;;;17.30;43.50;;;;;;5052034;28;20214;-74
2023/02/05 12:32:29;;;;;;;5.72;1.85;;;17.40;43.50;;;;;;5036655;28;20700;-73
2023/02/05 12:35:13;;;;;;;3.83;1.60;;;17.40;43.50;;;;;;5052093;28;20374;-74
2023/02/05 12:37:47;;;;;;;5.90;1.67;;;17.40;43.50;;;;;;5051308;28;20293;-75
2023/02/05 12:40:30;;;;;;;5.47;1.67;;;17.30;43.40;;;;;;5051987;28;20219;-74
2023/02/05 12:43:03;;;;;;;5.32;1.63;;;17.30;43.40;;;;;;5051855;28;20196;-69
2023/02/05 12:45:40;;;;;;;7.50;1.80;;;17.30;43.40;;;;;;5051950;28;20216;-68
2023/02/05 12:48:26;;;;;;;5.50;1.65;;;17.30;43.40;;;;;;5051726;28;20195;-69
2023/02/05 12:51:05;;;;;;;3.88;1.45;;;17.40;43.50;;;;;;5051365;28;20261;-75
2023/02/05 12:53:56;;;;;;;4.63;1.80;;;17.30;43.30;;;;;;5051197;28;20184;-69
2023/02/05 12:56:53;;;;;;;2.63;1.60;;;17.30;43.30;;;;;;5051896;28;20220;-74
2023/02/05 12:59:33;;;;;;;5.18;1.70;;;17.30;43.20;;;;;;5047180;28;20192;-72
2023/02/05 13:02:07;;;;;;;6.07;1.92;;;17.30;43.30;;;;;;5051474;28;20215;-69
2023/02/05 13:04:39;;;;;;;6.88;1.50;;;17.30;43.30;;;;;;5081431;28;20243;-74
2023/02/05 13:07:12;;;;;;;4.50;1.60;;;17.30;43.20;;;;;;5114595;27;20193;-74
2023/02/05 13:09:47;;;;;;;4.22;1.70;;;17.30;43.20;;;;;;5113643;28;20217;-74
2023/02/05 13:12:17;;;;;;;7.07;1.80;;;17.30;43.20;;;;;;5114483;28;20181;-73